createdAt,value
2019-03-16T00:00:02.545Z,11.60
2019-03-16T00:02:31.810Z,11.60
2019-03-16T00:05:02.681Z,11.00
2019-03-16T00:07:33.275Z,11.10
2019-03-16T00:10:11.720Z,11.40
2019-03-16T00:12:43.688Z,11.50
2019-03-16T00:15:16.003Z,11.00
2019-03-16T00:17:45.194Z,10.60
2019-03-16T00:20:14.715Z,10.80
2019-03-16T00:22:46.102Z,10.90
2019-03-16T00:25:15.378Z,11.10
2019-03-16T00:27:44.778Z,11.10
2019-03-16T00:30:14.302Z,11.30
2019-03-16T00:32:43.684Z,11.50
2019-03-16T00:35:13.106Z,11.70
2019-03-16T00:37:42.409Z,11.80
2019-03-16T00:40:12.428Z,11.60
2019-03-16T00:42:41.725Z,11.10
2019-03-16T00:45:11.334Z,10.90
2019-03-16T00:47:40.613Z,10.10
2019-03-16T00:50:13.082Z,10.10
2019-03-16T00:52:42.278Z,10.30
2019-03-16T00:55:11.491Z,10.00
2019-03-16T00:57:40.790Z,9.90
2019-03-16T01:00:10.915Z,10.10
2019-03-16T01:02:40.216Z,9.70
2019-03-16T01:05:10.666Z,10.00
2019-03-16T01:07:41.493Z,9.90
2019-03-16T01:10:11.123Z,10.00
2019-03-16T01:12:40.468Z,9.80
2019-03-16T01:15:10.212Z,10.00
2019-03-16T01:17:39.506Z,10.00
2019-03-16T01:20:09.450Z,10.20
2019-03-16T01:22:38.688Z,10.40
2019-03-16T01:25:08.282Z,10.20
2019-03-16T01:27:37.595Z,10.00
2019-03-16T01:30:07.555Z,9.80
2019-03-16T01:32:40.858Z,9.90
2019-03-16T01:35:08.120Z,10.00
2019-03-16T01:37:37.374Z,10.20
2019-03-16T01:40:06.895Z,10.30
2019-03-16T01:42:36.226Z,10.20
2019-03-16T01:45:05.939Z,9.90
2019-03-16T01:47:35.370Z,9.50
2019-03-16T01:50:05.753Z,9.30
2019-03-16T01:52:35.135Z,9.40
2019-03-16T01:55:04.781Z,9.60
2019-03-16T01:57:34.026Z,9.70
2019-03-16T02:00:22.406Z,9.60
2019-03-16T02:02:55.652Z,9.40
2019-03-16T02:05:23.310Z,9.30
2019-03-16T02:07:52.661Z,9.00
2019-03-16T02:10:22.001Z,8.90
2019-03-16T02:12:51.239Z,8.80
2019-03-16T02:15:20.570Z,8.70
2019-03-16T02:17:49.867Z,8.60
2019-03-16T02:20:19.201Z,8.60
2019-03-16T02:22:48.738Z,8.70
2019-03-16T02:25:18.039Z,8.80
2019-03-16T02:27:50.203Z,8.70
2019-03-16T02:30:19.747Z,8.90
2019-03-16T02:32:49.038Z,8.90
2019-03-16T02:35:18.348Z,8.80
2019-03-16T02:37:47.641Z,8.80
2019-03-16T02:40:16.954Z,8.80
2019-03-16T02:42:46.308Z,8.70
2019-03-16T02:45:15.623Z,8.70
2019-03-16T02:47:44.890Z,8.60
2019-03-16T02:50:14.455Z,8.70
2019-03-16T02:52:43.724Z,8.70
2019-03-16T02:55:13.056Z,8.60
2019-03-16T02:57:42.411Z,8.70
2019-03-16T03:00:12.332Z,8.70
2019-03-16T03:02:41.942Z,8.60
2019-03-16T03:05:11.245Z,8.50
2019-03-16T03:07:40.667Z,8.50
2019-03-16T03:10:10.463Z,8.50
2019-03-16T03:12:39.994Z,8.40
2019-03-16T03:15:11.180Z,8.40
2019-03-16T03:17:40.739Z,8.30
2019-03-16T03:20:10.669Z,8.30
2019-03-16T03:22:40.032Z,8.30
2019-03-16T03:25:09.362Z,8.30
2019-03-16T03:27:38.673Z,8.20
2019-03-16T03:30:09.386Z,8.20
2019-03-16T03:32:38.769Z,8.20
2019-03-16T03:35:08.672Z,8.10
2019-03-16T03:37:38.040Z,8.10
2019-03-16T03:40:07.899Z,8.00
2019-03-16T03:42:37.139Z,8.10
2019-03-16T03:45:07.582Z,8.00
2019-03-16T03:47:36.806Z,8.00
2019-03-16T03:50:06.964Z,8.00
2019-03-16T03:52:36.262Z,8.00
2019-03-16T03:55:05.933Z,8.10
2019-03-16T03:57:35.429Z,8.10
2019-03-16T04:00:05.714Z,8.00
2019-03-16T04:02:39.869Z,8.10
2019-03-16T04:05:09.650Z,8.10
2019-03-16T04:07:38.838Z,8.10
2019-03-16T04:10:08.909Z,8.10
2019-03-16T04:12:38.185Z,8.10
2019-03-16T04:15:07.540Z,8.10
2019-03-16T04:17:36.771Z,8.10
2019-03-16T04:20:06.957Z,8.10
2019-03-16T04:22:36.258Z,8.10
2019-03-16T04:25:06.271Z,8.10
2019-03-16T04:27:35.626Z,8.10
2019-03-16T04:30:05.784Z,8.10
2019-03-16T04:32:35.185Z,8.20
2019-03-16T04:35:04.784Z,8.10
2019-03-16T04:37:33.969Z,8.10
2019-03-16T04:40:03.247Z,8.10
2019-03-16T04:42:32.599Z,8.10
2019-03-16T04:45:01.835Z,8.20
2019-03-16T04:47:31.094Z,8.30
2019-03-16T04:50:00.432Z,8.10
2019-03-16T04:52:29.772Z,8.10
2019-03-16T04:54:59.043Z,8.00
2019-03-16T04:57:28.343Z,7.80
2019-03-16T04:59:57.681Z,7.80
2019-03-16T05:02:27.046Z,7.70
2019-03-16T05:04:56.298Z,7.70
2019-03-16T05:07:25.642Z,7.60
2019-03-16T05:09:54.942Z,7.50
2019-03-16T05:12:24.262Z,7.50
2019-03-16T05:14:53.494Z,7.50
2019-03-16T05:17:22.671Z,7.40
2019-03-16T05:19:51.958Z,7.40
2019-03-16T05:22:21.308Z,7.30
2019-03-16T05:24:50.575Z,7.40
2019-03-16T05:27:19.971Z,7.40
2019-03-16T05:29:49.229Z,7.40
2019-03-16T05:32:18.575Z,7.50
2019-03-16T05:34:56.537Z,7.50
2019-03-16T05:37:18.982Z,7.50
2019-03-16T05:39:48.290Z,7.50
2019-03-16T05:42:18.881Z,7.50
2019-03-16T05:44:48.165Z,7.50
2019-03-16T05:47:17.706Z,7.50
2019-03-16T05:49:47.066Z,7.50
2019-03-16T05:52:16.391Z,7.50
2019-03-16T05:54:45.653Z,7.50
2019-03-16T05:57:14.966Z,7.60
2019-03-16T05:59:44.308Z,7.80
2019-03-16T06:02:13.569Z,7.90
2019-03-16T06:04:45.927Z,7.80
2019-03-16T06:07:15.194Z,7.90
2019-03-16T06:09:44.539Z,7.90
2019-03-16T06:12:14.226Z,8.10
2019-03-16T06:14:43.812Z,8.10
2019-03-16T06:17:13.197Z,8.10
2019-03-16T06:19:42.759Z,8.10
2019-03-16T06:22:12.030Z,8.30
2019-03-16T06:24:41.306Z,8.20
2019-03-16T06:27:10.583Z,8.30
2019-03-16T06:29:39.934Z,8.20
2019-03-16T06:32:09.174Z,8.20
2019-03-16T06:34:38.562Z,8.30
2019-03-16T06:37:08.005Z,8.30
2019-03-16T06:39:37.336Z,8.20
2019-03-16T06:42:06.631Z,8.30
2019-03-16T06:44:35.866Z,8.30
2019-03-16T06:47:05.097Z,8.40
2019-03-16T06:49:34.395Z,8.60
2019-03-16T06:52:03.625Z,8.70
2019-03-16T06:54:32.823Z,8.70
2019-03-16T06:57:02.138Z,8.60
2019-03-16T06:59:31.406Z,8.50
2019-03-16T07:02:00.656Z,8.50
2019-03-16T07:04:30.003Z,8.50
2019-03-16T07:06:59.322Z,8.50
2019-03-16T07:09:28.702Z,8.40
2019-03-16T07:11:58.023Z,8.60
2019-03-16T07:14:27.266Z,8.70
2019-03-16T07:17:01.862Z,8.70
2019-03-16T07:19:27.643Z,8.80
2019-03-16T07:21:59.953Z,8.70
2019-03-16T07:24:29.555Z,8.60
2019-03-16T07:26:58.964Z,8.70
2019-03-16T07:29:28.478Z,8.80
2019-03-16T07:31:57.729Z,8.80
2019-03-16T07:34:27.046Z,8.80
2019-03-16T07:36:56.342Z,8.70
2019-03-16T07:39:25.779Z,9.00
2019-03-16T07:41:55.056Z,9.10
2019-03-16T07:44:24.337Z,9.10
2019-03-16T07:46:53.516Z,9.50
2019-03-16T07:49:22.796Z,9.70
2019-03-16T07:51:52.030Z,9.80
2019-03-16T07:54:21.389Z,9.70
2019-03-16T07:56:50.771Z,9.90
2019-03-16T07:59:19.979Z,10.10
2019-03-16T08:01:49.283Z,10.20
2019-03-16T08:04:18.675Z,10.20
2019-03-16T08:06:48.015Z,10.70
2019-03-16T08:09:17.414Z,11.30
2019-03-16T08:11:46.856Z,11.40
2019-03-16T08:14:16.150Z,11.70
2019-03-16T08:16:45.468Z,12.00
2019-03-16T08:19:14.677Z,12.10
2019-03-16T08:21:43.950Z,12.30
2019-03-16T08:24:13.286Z,12.80
2019-03-16T08:26:42.654Z,13.20
2019-03-16T08:29:11.999Z,13.40
2019-03-16T08:31:41.517Z,13.50
2019-03-16T08:34:10.840Z,13.60
2019-03-16T08:36:40.094Z,13.60
2019-03-16T08:39:09.442Z,13.90
2019-03-16T08:41:38.728Z,14.30
2019-03-16T08:44:08.034Z,14.10
2019-03-16T08:46:37.405Z,14.10
2019-03-16T08:49:06.906Z,14.00
2019-03-16T08:51:36.761Z,14.00
2019-03-16T08:54:06.180Z,14.20
2019-03-16T08:56:35.718Z,14.30
2019-03-16T08:59:05.282Z,14.60
2019-03-16T09:01:34.703Z,14.50
2019-03-16T09:04:04.339Z,14.40
2019-03-16T09:06:36.509Z,14.30
2019-03-16T09:09:10.288Z,14.30
2019-03-16T09:11:39.664Z,14.30
2019-03-16T09:14:08.957Z,14.50
2019-03-16T09:16:38.361Z,14.50
2019-03-16T09:19:07.862Z,14.50
2019-03-16T09:21:37.195Z,14.30
2019-03-16T09:24:06.606Z,14.20
2019-03-16T09:26:36.138Z,14.30
2019-03-16T09:29:14.421Z,14.50
2019-03-16T09:31:36.469Z,14.50
2019-03-16T09:34:05.757Z,14.50
2019-03-16T09:36:35.112Z,14.40
2019-03-16T09:39:06.385Z,14.30
2019-03-16T09:41:35.706Z,14.40
2019-03-16T09:44:05.658Z,14.40
2019-03-16T09:46:34.970Z,14.40
2019-03-16T09:49:05.915Z,14.30
2019-03-16T09:51:35.210Z,14.30
2019-03-16T09:54:04.564Z,14.30
2019-03-16T09:56:33.914Z,14.20
2019-03-16T09:59:03.130Z,14.20
2019-03-16T10:01:32.539Z,14.30
2019-03-16T10:04:01.830Z,14.40
2019-03-16T10:06:31.215Z,14.30
2019-03-16T10:09:00.774Z,14.30
2019-03-16T10:11:30.104Z,14.20
2019-03-16T10:13:59.442Z,14.30
2019-03-16T10:16:28.825Z,14.30
2019-03-16T10:18:58.220Z,14.30
2019-03-16T10:21:27.570Z,14.50
2019-03-16T10:23:56.846Z,14.60
2019-03-16T10:26:26.073Z,14.70
2019-03-16T10:28:55.719Z,14.80
2019-03-16T10:31:24.998Z,14.90
2019-03-16T10:33:54.349Z,14.90
2019-03-16T10:36:23.517Z,14.90
2019-03-16T10:38:52.789Z,14.90
2019-03-16T10:41:22.246Z,15.00
2019-03-16T10:43:51.529Z,15.00
2019-03-16T10:46:20.920Z,15.00
2019-03-16T10:48:50.455Z,14.90
2019-03-16T10:51:19.830Z,14.80
2019-03-16T10:53:49.206Z,14.80
2019-03-16T10:56:18.611Z,14.90
2019-03-16T10:58:56.435Z,14.90
2019-03-16T11:01:19.136Z,14.90
2019-03-16T11:03:48.650Z,14.90
2019-03-16T11:06:17.954Z,14.80
2019-03-16T11:08:47.293Z,14.90
2019-03-16T11:11:16.815Z,14.90
2019-03-16T11:13:46.204Z,15.00
2019-03-16T11:16:34.654Z,15.00
2019-03-16T11:19:04.047Z,15.10
2019-03-16T11:21:33.781Z,15.10
2019-03-16T11:24:03.088Z,15.10
2019-03-16T11:26:32.343Z,15.00
2019-03-16T11:29:09.066Z,15.10
2019-03-16T11:31:32.644Z,15.10
2019-03-16T11:34:02.295Z,15.10
2019-03-16T11:36:31.655Z,15.00
2019-03-16T11:39:00.955Z,15.00
2019-03-16T11:41:30.310Z,14.90
2019-03-16T11:43:59.642Z,15.00
2019-03-16T11:46:28.929Z,15.00
2019-03-16T11:48:58.503Z,15.10
2019-03-16T11:51:27.769Z,15.10
2019-03-16T11:53:57.139Z,15.10
2019-03-16T11:56:26.552Z,15.00
2019-03-16T11:58:55.881Z,14.90
2019-03-16T12:01:25.177Z,15.00
2019-03-16T12:03:54.779Z,15.00
2019-03-16T12:06:24.094Z,14.90
2019-03-16T12:08:53.380Z,14.90
2019-03-16T12:11:23.155Z,14.90
2019-03-16T12:13:52.488Z,14.80
2019-03-16T12:16:21.784Z,14.70
2019-03-16T12:18:51.134Z,14.70
2019-03-16T12:21:20.455Z,14.60
2019-03-16T12:23:49.747Z,14.60
2019-03-16T12:26:20.176Z,14.70
2019-03-16T12:28:49.974Z,14.80
2019-03-16T12:31:19.236Z,14.80
2019-03-16T12:33:48.558Z,14.90
2019-03-16T12:36:17.857Z,14.80
2019-03-16T12:38:47.218Z,14.70
2019-03-16T12:41:16.517Z,14.80
2019-03-16T12:43:45.775Z,14.80
2019-03-16T12:46:15.034Z,14.80
2019-03-16T12:48:44.327Z,14.90
2019-03-16T12:51:13.719Z,14.90
2019-03-16T12:53:43.238Z,14.90
2019-03-16T12:56:12.641Z,14.90
2019-03-16T12:58:42.040Z,14.90
2019-03-16T13:01:12.701Z,14.90
2019-03-16T13:03:42.241Z,14.80
2019-03-16T13:06:11.644Z,14.80
2019-03-16T13:08:40.944Z,14.70
2019-03-16T13:11:10.325Z,14.70
2019-03-16T13:13:39.659Z,14.70
2019-03-16T13:16:09.128Z,14.60
2019-03-16T13:18:38.447Z,14.60
2019-03-16T13:21:07.795Z,14.60
2019-03-16T13:23:37.126Z,14.60
2019-03-16T13:26:06.398Z,14.50
2019-03-16T13:28:35.887Z,14.50
2019-03-16T13:31:05.896Z,14.50
2019-03-16T13:33:35.557Z,14.50
2019-03-16T13:36:05.075Z,14.40
2019-03-16T13:38:34.607Z,14.40
2019-03-16T13:41:03.884Z,14.40
2019-03-16T13:43:33.223Z,14.30
2019-03-16T13:46:02.632Z,14.40
2019-03-16T13:48:31.987Z,14.40
2019-03-16T13:51:01.253Z,14.30
2019-03-16T13:53:32.731Z,14.30
2019-03-16T13:56:01.576Z,14.30
2019-03-16T13:58:30.942Z,14.30
2019-03-16T14:01:00.311Z,14.30
2019-03-16T14:03:30.438Z,14.20
2019-03-16T14:06:00.006Z,14.20
2019-03-16T14:08:29.337Z,14.10
2019-03-16T14:10:58.841Z,14.10
2019-03-16T14:13:28.599Z,14.10
2019-03-16T14:15:58.073Z,14.10
2019-03-16T14:18:27.479Z,14.10
2019-03-16T14:20:58.934Z,14.20
2019-03-16T14:23:28.371Z,14.10
2019-03-16T14:25:57.676Z,14.10
2019-03-16T14:28:27.391Z,14.10
2019-03-16T14:30:58.258Z,14.10
2019-03-16T14:33:28.228Z,14.10
2019-03-16T14:35:57.620Z,14.10
2019-03-16T14:38:27.152Z,14.10
2019-03-16T14:40:56.458Z,14.10
2019-03-16T14:43:25.781Z,14.10
2019-03-16T14:45:55.571Z,14.10
2019-03-16T14:48:25.358Z,14.10
2019-03-16T14:50:55.182Z,14.10
2019-03-16T14:53:24.527Z,14.10
2019-03-16T14:55:56.304Z,14.00
2019-03-16T14:58:24.962Z,14.00
2019-03-16T15:00:54.378Z,14.00
2019-03-16T15:03:23.701Z,13.90
2019-03-16T15:05:53.111Z,14.00
2019-03-16T15:08:22.426Z,13.90
2019-03-16T15:10:51.699Z,13.90
2019-03-16T15:13:21.118Z,13.90
2019-03-16T15:15:50.386Z,13.90
2019-03-16T15:18:19.898Z,13.90
2019-03-16T15:20:49.227Z,13.90
2019-03-16T15:23:18.634Z,13.90
2019-03-16T15:25:47.982Z,13.80
2019-03-16T15:28:17.303Z,13.80
2019-03-16T15:30:50.884Z,13.70
2019-03-16T15:33:17.580Z,13.80
2019-03-16T15:35:46.834Z,13.90
2019-03-16T15:38:16.215Z,13.90
2019-03-16T15:40:45.603Z,13.90
2019-03-16T15:43:14.877Z,13.90
2019-03-16T15:45:45.160Z,13.90
2019-03-16T15:48:14.891Z,13.90
2019-03-16T15:50:44.210Z,13.90
2019-03-16T15:53:13.517Z,13.80
2019-03-16T15:55:42.807Z,13.80
2019-03-16T15:58:12.050Z,13.80
2019-03-16T16:00:41.477Z,13.80
2019-03-16T16:03:10.751Z,13.80
2019-03-16T16:05:40.219Z,13.80
2019-03-16T16:08:09.510Z,13.90
2019-03-16T16:10:40.707Z,13.90
2019-03-16T16:13:10.117Z,13.90
2019-03-16T16:15:39.916Z,13.90
2019-03-16T16:18:09.209Z,13.90
2019-03-16T16:20:38.512Z,13.80
2019-03-16T16:23:07.785Z,13.70
2019-03-16T16:25:37.088Z,13.70
2019-03-16T16:28:06.352Z,13.70
2019-03-16T16:30:35.635Z,13.70
2019-03-16T16:33:05.418Z,13.70
2019-03-16T16:35:34.686Z,13.70
2019-03-16T16:38:04.069Z,13.80
2019-03-16T16:40:33.436Z,13.70
2019-03-16T16:43:02.676Z,13.70
2019-03-16T16:45:32.006Z,13.70
2019-03-16T16:48:01.259Z,13.70
2019-03-16T16:50:30.638Z,13.70
2019-03-16T16:53:03.001Z,13.70
2019-03-16T16:55:32.507Z,13.70
2019-03-16T16:58:01.809Z,13.70
2019-03-16T17:00:31.194Z,13.80
2019-03-16T17:03:00.703Z,13.90
2019-03-16T17:05:30.021Z,13.90
2019-03-16T17:07:59.306Z,14.10
2019-03-16T17:10:28.542Z,14.20
2019-03-16T17:12:57.872Z,14.30
2019-03-16T17:15:27.227Z,14.50
2019-03-16T17:17:56.597Z,14.60
2019-03-16T17:20:25.869Z,14.60
2019-03-16T17:22:55.341Z,14.40
2019-03-16T17:25:24.736Z,14.60
2019-03-16T17:27:54.642Z,14.60
2019-03-16T17:30:24.501Z,14.70
2019-03-16T17:32:54.094Z,14.70
2019-03-16T17:35:23.570Z,14.80
2019-03-16T17:37:53.283Z,14.80
2019-03-16T17:40:22.716Z,14.80
2019-03-16T17:42:51.998Z,14.80
2019-03-16T17:45:21.279Z,14.70
2019-03-16T17:47:50.539Z,14.60
2019-03-16T17:50:19.798Z,14.40
2019-03-16T17:52:49.910Z,14.50
2019-03-16T17:55:19.642Z,14.40
2019-03-16T17:57:48.999Z,14.40
2019-03-16T18:00:18.288Z,14.30
2019-03-16T18:02:52.674Z,14.30
2019-03-16T18:05:19.893Z,14.40
2019-03-16T18:07:49.171Z,14.40
2019-03-16T18:10:18.704Z,14.40
2019-03-16T18:12:48.276Z,14.40
2019-03-16T18:15:17.636Z,14.40
2019-03-16T18:17:47.130Z,14.30
2019-03-16T18:20:18.102Z,14.30
2019-03-16T18:22:47.794Z,14.30
2019-03-16T18:25:17.245Z,14.20
2019-03-16T18:27:46.552Z,14.20
2019-03-16T18:30:16.267Z,14.20
2019-03-16T18:32:45.585Z,14.20
2019-03-16T18:35:15.017Z,14.10
2019-03-16T18:37:44.498Z,14.10
2019-03-16T18:40:13.781Z,14.10
2019-03-16T18:42:43.235Z,14.10
2019-03-16T18:45:14.222Z,14.10
2019-03-16T18:47:43.777Z,14.00
2019-03-16T18:50:13.357Z,14.00
2019-03-16T18:52:42.634Z,14.00
2019-03-16T18:55:12.697Z,14.00
2019-03-16T18:57:42.022Z,14.00
2019-03-16T19:00:12.799Z,14.00
2019-03-16T19:02:42.055Z,14.30
2019-03-16T19:05:11.703Z,14.50
2019-03-16T19:07:41.018Z,14.50
2019-03-16T19:10:13.342Z,14.40
2019-03-16T19:12:42.654Z,14.20
2019-03-16T19:15:13.331Z,14.20
2019-03-16T19:17:42.678Z,14.00
2019-03-16T19:20:13.111Z,14.00
2019-03-16T19:22:42.452Z,14.00
2019-03-16T19:25:13.164Z,14.10
2019-03-16T19:27:42.916Z,14.10
2019-03-16T19:30:13.689Z,14.00
2019-03-16T19:32:43.266Z,13.90
2019-03-16T19:35:13.386Z,13.90
2019-03-16T19:37:42.705Z,13.90
2019-03-16T19:40:12.546Z,13.90
2019-03-16T19:42:41.841Z,13.90
2019-03-16T19:45:11.863Z,13.80
2019-03-16T19:47:41.242Z,13.80
2019-03-16T19:50:11.279Z,13.70
2019-03-16T19:52:40.692Z,13.60
2019-03-16T19:55:10.890Z,13.80
2019-03-16T19:57:40.258Z,13.80
2019-03-16T20:00:11.355Z,13.90
2019-03-16T20:02:49.831Z,13.80
2019-03-16T20:05:11.775Z,13.80
2019-03-16T20:07:41.361Z,13.80
2019-03-16T20:10:11.991Z,13.70
2019-03-16T20:12:41.415Z,13.70
2019-03-16T20:15:11.299Z,13.70
2019-03-16T20:17:40.606Z,13.70
2019-03-16T20:20:10.526Z,13.80
2019-03-16T20:22:40.109Z,13.70
2019-03-16T20:25:09.948Z,13.70
2019-03-16T20:27:39.258Z,13.70
2019-03-16T20:30:09.248Z,13.70
2019-03-16T20:32:38.730Z,13.80
2019-03-16T20:35:08.414Z,13.70
2019-03-16T20:37:38.025Z,13.80
2019-03-16T20:40:08.562Z,13.80
2019-03-16T20:42:38.031Z,13.70
2019-03-16T20:45:08.101Z,13.70
2019-03-16T20:47:37.684Z,13.70
2019-03-16T20:50:08.491Z,13.60
2019-03-16T20:52:37.820Z,13.60
2019-03-16T20:55:07.618Z,13.60
2019-03-16T20:57:36.986Z,13.40
2019-03-16T21:00:06.989Z,13.40
2019-03-16T21:02:36.353Z,13.50
2019-03-16T21:05:06.879Z,13.70
2019-03-16T21:07:36.239Z,13.70
2019-03-16T21:10:06.162Z,13.60
2019-03-16T21:12:35.860Z,13.60
2019-03-16T21:15:05.990Z,13.60
2019-03-16T21:17:35.405Z,13.50
2019-03-16T21:20:05.641Z,13.50
2019-03-16T21:22:38.785Z,13.40
2019-03-16T21:25:06.360Z,13.30
2019-03-16T21:27:35.626Z,13.30
2019-03-16T21:30:06.493Z,13.40
2019-03-16T21:32:35.768Z,13.40
2019-03-16T21:35:05.450Z,13.40
2019-03-16T21:37:35.244Z,13.50
2019-03-16T21:40:05.565Z,13.50
2019-03-16T21:42:34.927Z,13.50
2019-03-16T21:45:04.744Z,13.60
2019-03-16T21:47:34.025Z,13.60
2019-03-16T21:50:03.417Z,13.60
2019-03-16T21:52:33.261Z,13.60
2019-03-16T21:55:02.742Z,13.50
2019-03-16T21:57:32.233Z,13.40
2019-03-16T22:00:02.127Z,13.40
2019-03-16T22:02:31.466Z,13.30
2019-03-16T22:05:00.828Z,13.40
2019-03-16T22:07:30.263Z,13.50
2019-03-16T22:09:59.558Z,13.40
2019-03-16T22:12:28.882Z,13.50
2019-03-16T22:14:58.211Z,13.50
2019-03-16T22:17:27.564Z,13.50
2019-03-16T22:19:56.823Z,13.60
2019-03-16T22:22:26.424Z,13.60
2019-03-16T22:24:55.733Z,13.60
2019-03-16T22:27:25.110Z,13.60
2019-03-16T22:29:54.629Z,13.70
2019-03-16T22:32:23.989Z,13.80
2019-03-16T22:34:53.499Z,13.70
2019-03-16T22:37:22.875Z,13.60
2019-03-16T22:39:52.435Z,13.60
2019-03-16T22:42:21.854Z,13.60
2019-03-16T22:44:51.315Z,13.60
2019-03-16T22:47:20.906Z,13.60
2019-03-16T22:49:50.229Z,13.50
2019-03-16T22:52:19.701Z,13.50
2019-03-16T22:54:49.235Z,13.40
2019-03-16T22:57:18.561Z,13.50
2019-03-16T22:59:47.917Z,13.50
2019-03-16T23:02:17.245Z,13.50
2019-03-16T23:04:46.890Z,13.50
2019-03-16T23:07:16.292Z,13.50
2019-03-16T23:09:46.082Z,13.50
2019-03-16T23:12:15.751Z,13.50
2019-03-16T23:14:45.029Z,13.50
2019-03-16T23:17:14.283Z,13.50
2019-03-16T23:19:43.574Z,13.50
2019-03-16T23:22:12.836Z,13.50
2019-03-16T23:24:42.258Z,13.50
2019-03-16T23:27:11.566Z,13.50
2019-03-16T23:29:40.998Z,13.50
2019-03-16T23:32:10.285Z,13.50
2019-03-16T23:34:39.652Z,13.50
2019-03-16T23:37:08.941Z,13.50
2019-03-16T23:39:38.185Z,13.50
2019-03-16T23:42:07.671Z,13.40
2019-03-16T23:44:36.918Z,13.40
2019-03-16T23:47:06.246Z,13.30
2019-03-16T23:49:35.599Z,13.30
2019-03-16T23:52:24.043Z,13.40
2019-03-16T23:54:53.442Z,13.50
2019-03-16T23:57:22.695Z,13.50
2019-03-16T23:59:51.968Z,13.40
